createdAt,value
2022-09-12T00:08:56.561Z,1018.59
2022-09-12T00:20:21.456Z,1018.60
2022-09-12T00:30:26.918Z,1018.50
2022-09-12T00:40:33.294Z,1018.50
2022-09-12T00:50:39.386Z,1018.46
2022-09-12T01:00:46.078Z,1018.50
2022-09-12T01:10:52.565Z,1018.48
2022-09-12T01:20:59.262Z,1018.49
2022-09-12T01:31:15.032Z,1018.61
2022-09-12T01:41:22.287Z,1018.43
2022-09-12T01:51:28.723Z,1018.40
2022-09-12T02:01:36.017Z,1018.40
2022-09-12T02:13:02.334Z,1018.40
2022-09-12T02:23:08.316Z,1018.41
2022-09-12T02:35:54.109Z,1018.35
2022-09-12T03:50:52.289Z,1018.41
2022-09-12T06:32:01.559Z,1018.95
2022-09-12T07:12:38.439Z,1018.90
2022-09-12T07:22:44.549Z,1018.84
2022-09-12T07:35:31.813Z,1018.88
2022-09-12T07:49:37.035Z,1018.86
2022-09-12T08:01:04.743Z,1018.85
2022-09-12T08:12:33.246Z,1018.88
2022-09-12T08:24:02.787Z,1018.91
2022-09-12T08:43:22.447Z,1018.85
2022-09-12T08:58:50.367Z,1018.82
2022-09-12T09:08:55.927Z,1018.74
2022-09-12T09:20:23.967Z,1018.75
2022-09-12T09:30:30.129Z,1018.71
2022-09-12T09:40:37.160Z,1018.71
2022-09-12T09:50:45.124Z,1018.62
2022-09-12T10:00:54.895Z,1018.61
2022-09-12T10:11:05.284Z,1018.55
2022-09-12T10:21:13.108Z,1018.48
2022-09-12T10:31:20.131Z,1018.42
2022-09-12T10:41:28.208Z,1018.41
2022-09-12T10:51:35.628Z,1018.32
2022-09-12T11:01:43.195Z,1018.24
2022-09-12T11:11:52.030Z,1018.24
2022-09-12T11:21:58.687Z,1018.29
2022-09-12T11:32:05.540Z,1018.34
2022-09-12T11:42:12.343Z,1018.32
2022-09-12T12:00:21.091Z,1018.04
2022-09-12T12:10:27.640Z,1017.94
2022-09-12T12:20:36.243Z,1017.87
2022-09-12T14:32:42.121Z,1017.24
2022-09-12T14:45:26.424Z,1017.16
2022-09-12T15:06:10.187Z,1017.05
2022-09-12T15:16:16.417Z,1017.08
2022-09-12T16:42:01.344Z,1016.64
2022-09-12T16:57:31.117Z,1016.51
2022-09-12T17:56:40.321Z,1016.37
2022-09-12T18:33:18.809Z,1016.34
2022-09-12T18:50:04.138Z,1016.29
2022-09-12T19:00:12.432Z,1016.23
2022-09-12T19:26:13.824Z,1016.05
2022-09-12T19:36:43.380Z,1015.95
2022-09-12T19:57:07.013Z,1015.80
2022-09-12T20:09:55.120Z,1015.67
2022-09-12T20:21:20.670Z,1015.60
2022-09-12T20:36:45.307Z,1015.59
2022-09-12T20:46:51.522Z,1015.62
2022-09-12T20:56:58.210Z,1015.49
2022-09-12T21:07:05.449Z,1015.41
2022-09-12T21:17:12.969Z,1015.43
2022-09-12T21:27:20.283Z,1015.41
2022-09-12T21:37:27.719Z,1015.26
2022-09-12T21:47:34.580Z,1015.25
2022-09-12T21:57:41.353Z,1015.18
2022-09-12T22:07:48.227Z,1015.01
2022-09-12T22:17:55.051Z,1014.90
2022-09-12T22:28:01.826Z,1014.73
2022-09-12T22:38:09.309Z,1014.55
2022-09-12T22:48:16.187Z,1014.44
2022-09-12T22:58:24.003Z,1014.19
2022-09-12T23:08:31.057Z,1014.03
2022-09-12T23:18:37.966Z,1013.99
2022-09-12T23:28:45.137Z,1014.03
2022-09-12T23:38:52.162Z,1013.93
2022-09-12T23:48:59.042Z,1013.84
2022-09-12T23:59:05.817Z,1013.77
